Time;durP1;ratioP1;P1;durP2;ratioP2;P2;SDS_P1;SDS_P2;PMS_P1;PMS_P2;Temp;Humidity;BMP_temperature;BMP_pressure;BME280_temperature;BME280_humidity;BME280_pressure;Samples;Min_cycle;Max_cycle;Signal;HPM_P1;HPM_P2
2023/10/27 00:02:23;;;;;;;117.10;107.00;;;10.70;99.90;;;;;;5035761;28;20162;-77
2023/10/27 00:04:49;;;;;;;112.77;103.10;;;10.60;99.90;;;;;;5035365;28;20166;-77
2023/10/27 00:07:14;;;;;;;108.80;98.67;;;10.60;99.90;;;;;;5035760;28;20170;-77
2023/10/27 00:09:41;;;;;;;104.60;95.17;;;10.60;99.90;;;;;;5035314;28;20647;-77
2023/10/27 00:12:07;;;;;;;115.63;105.35;;;10.60;99.90;;;;;;5035199;28;20232;-77
2023/10/27 00:14:34;;;;;;;115.28;105.22;;;10.50;99.90;;;;;;5035340;28;20182;-77
2023/10/27 00:17:00;;;;;;;105.95;96.38;;;10.50;99.90;;;;;;5035509;28;20173;-77
2023/10/27 00:19:25;;;;;;;131.15;120.40;;;10.50;99.90;;;;;;5035254;28;20237;-77
2023/10/27 00:21:51;;;;;;;121.73;110.70;;;10.50;99.90;;;;;;5035262;28;20770;-77
2023/10/27 00:24:20;;;;;;;124.93;114.60;;;10.50;99.90;;;;;;5034945;28;20193;-77
2023/10/27 00:26:46;;;;;;;124.22;113.90;;;10.50;99.90;;;;;;5035342;28;20567;-77
2023/10/27 00:29:11;;;;;;;119.03;109.27;;;10.50;99.90;;;;;;5035097;28;20173;-77
2023/10/27 00:31:37;;;;;;;116.20;106.20;;;10.60;99.90;;;;;;5017600;28;20643;-77
2023/10/27 00:34:02;;;;;;;121.30;111.10;;;10.50;99.90;;;;;;5034962;28;20200;-77
2023/10/27 00:36:28;;;;;;;122.77;112.47;;;10.50;99.90;;;;;;5034913;28;20182;-77
2023/10/27 00:38:54;;;;;;;135.07;124.03;;;10.50;99.90;;;;;;5035084;28;20685;-77
2023/10/27 00:41:19;;;;;;;118.83;108.80;;;10.50;99.90;;;;;;5034779;28;20665;-77
2023/10/27 00:43:45;;;;;;;128.40;117.87;;;10.50;99.90;;;;;;5034745;28;20185;-77
2023/10/27 00:46:11;;;;;;;135.93;125.17;;;10.50;99.90;;;;;;5034775;28;20169;-77
2023/10/27 00:48:36;;;;;;;128.43;118.03;;;10.50;99.90;;;;;;5034635;28;20174;-76
2023/10/27 00:51:05;;;;;;;131.17;121.00;;;10.40;99.90;;;;;;5034695;28;20219;-76
2023/10/27 00:53:32;;;;;;;118.68;108.38;;;10.40;99.90;;;;;;5034345;28;20316;-77
2023/10/27 00:55:58;;;;;;;127.93;117.43;;;10.50;99.90;;;;;;5034595;28;20304;-77
2023/10/27 00:58:24;;;;;;;126.03;115.78;;;10.50;99.90;;;;;;5034471;28;20584;-77
2023/10/27 01:00:51;;;;;;;130.82;119.80;;;10.50;99.90;;;;;;5034546;28;20260;-76
2023/10/27 01:03:17;;;;;;;136.98;125.82;;;10.50;99.90;;;;;;5034086;28;20189;-77
2023/10/27 01:05:42;;;;;;;141.80;131.10;;;10.50;99.90;;;;;;5017044;28;20170;-77
2023/10/27 01:08:08;;;;;;;152.77;141.07;;;10.50;99.90;;;;;;5034472;28;20220;-77
2023/10/27 01:10:34;;;;;;;158.90;147.03;;;10.50;99.90;;;;;;5034340;28;20246;-77
2023/10/27 01:12:59;;;;;;;149.40;137.53;;;10.50;99.90;;;;;;5034195;28;20219;-77
2023/10/27 01:15:25;;;;;;;144.87;133.50;;;10.50;99.90;;;;;;5034516;28;20166;-77
2023/10/27 01:17:51;;;;;;;137.40;126.70;;;10.50;99.90;;;;;;5034506;28;20309;-77
2023/10/27 01:20:16;;;;;;;123.27;113.37;;;10.40;99.90;;;;;;5034091;28;20169;-77
2023/10/27 01:22:45;;;;;;;131.53;120.87;;;10.50;99.90;;;;;;5034299;28;20650;-77
2023/10/27 01:25:12;;;;;;;125.43;115.25;;;10.40;99.90;;;;;;5033914;28;20194;-77
2023/10/27 01:27:38;;;;;;;152.18;140.18;;;10.50;99.90;;;;;;5016288;28;20201;-77
2023/10/27 01:30:04;;;;;;;133.03;122.40;;;10.40;99.90;;;;;;5016205;28;20655;-77
2023/10/27 01:32:30;;;;;;;121.65;111.68;;;10.50;99.90;;;;;;5033820;28;20190;-77
2023/10/27 01:34:55;;;;;;;155.30;142.73;;;10.50;99.90;;;;;;5033722;28;20635;-77
2023/10/27 01:37:21;;;;;;;141.43;129.97;;;10.50;99.90;;;;;;5033697;28;20583;-77
2023/10/27 01:39:48;;;;;;;156.73;144.90;;;10.50;99.90;;;;;;5034286;28;20170;-77
2023/10/27 01:42:14;;;;;;;129.95;119.85;;;10.40;99.90;;;;;;5033646;28;20173;-77
2023/10/27 01:44:40;;;;;;;123.78;113.35;;;10.50;99.90;;;;;;5033925;28;20170;-77
2023/10/27 01:47:05;;;;;;;125.77;115.67;;;10.50;99.90;;;;;;5034005;28;20178;-77
2023/10/27 01:49:31;;;;;;;117.17;107.20;;;10.50;99.90;;;;;;5016019;28;20174;-77
2023/10/27 01:51:57;;;;;;;120.70;110.43;;;10.50;99.90;;;;;;5033728;28;20185;-77
2023/10/27 01:54:22;;;;;;;124.83;114.63;;;10.50;99.90;;;;;;5033747;28;20209;-77
2023/10/27 01:56:48;;;;;;;129.23;118.83;;;10.50;99.90;;;;;;5015793;28;20166;-77
2023/10/27 01:59:14;;;;;;;123.37;112.73;;;10.50;99.90;;;;;;5033527;28;20220;-77
2023/10/27 02:01:39;;;;;;;123.47;113.47;;;10.50;99.90;;;;;;5033695;28;20249;-77
2023/10/27 02:04:05;;;;;;;137.70;126.50;;;10.50;99.90;;;;;;5033481;28;20224;-77
2023/10/27 02:06:30;;;;;;;124.33;113.77;;;10.40;99.90;;;;;;5033807;28;20174;-77
2023/10/27 02:08:56;;;;;;;156.40;144.73;;;10.40;99.90;;;;;;5015548;28;20178;-77
2023/10/27 02:11:23;;;;;;;134.50;122.87;;;10.50;99.90;;;;;;5033800;28;20515;-77
2023/10/27 02:13:49;;;;;;;147.43;135.52;;;10.40;99.90;;;;;;5033302;28;20201;-77
2023/10/27 02:16:14;;;;;;;142.15;130.30;;;10.50;99.90;;;;;;5032786;28;20162;-77
2023/10/27 02:18:40;;;;;;;143.87;132.27;;;10.40;99.90;;;;;;5033365;28;20180;-77
2023/10/27 02:21:06;;;;;;;115.57;105.67;;;10.50;99.90;;;;;;5033402;28;20169;-77
2023/10/27 02:23:32;;;;;;;121.83;111.97;;;10.50;99.90;;;;;;5033039;28;20260;-77
2023/10/27 02:25:58;;;;;;;142.00;130.30;;;10.50;99.90;;;;;;5033254;28;20188;-77
2023/10/27 02:28:24;;;;;;;131.27;121.03;;;10.50;99.90;;;;;;5033295;28;20249;-77
2023/10/27 02:30:49;;;;;;;125.77;115.50;;;10.50;99.90;;;;;;5033091;28;20192;-77
2023/10/27 02:33:16;;;;;;;112.70;102.87;;;10.60;99.90;;;;;;5033012;28;20572;-76
2023/10/27 02:35:42;;;;;;;134.07;123.63;;;10.60;99.90;;;;;;5033111;28;20155;-77
2023/10/27 02:38:08;;;;;;;126.70;116.13;;;10.70;99.90;;;;;;5033120;28;20508;-77
2023/10/27 02:40:36;;;;;;;120.10;110.32;;;10.70;99.90;;;;;;5033049;28;20770;-77
2023/10/27 02:43:03;;;;;;;121.88;111.68;;;10.60;99.90;;;;;;5033433;28;20178;-77
2023/10/27 02:45:29;;;;;;;127.85;117.55;;;10.60;99.90;;;;;;5033395;28;20158;-77
2023/10/27 02:47:55;;;;;;;139.85;128.75;;;10.60;99.90;;;;;;5033240;28;20176;-77
2023/10/27 02:50:21;;;;;;;126.97;116.73;;;10.60;99.90;;;;;;5033209;28;20699;-77
2023/10/27 02:52:46;;;;;;;114.20;104.00;;;10.60;99.90;;;;;;5015148;28;20201;-77
2023/10/27 02:55:12;;;;;;;114.33;104.93;;;10.70;99.90;;;;;;5032797;28;20197;-77
2023/10/27 02:57:38;;;;;;;128.33;118.23;;;10.70;99.90;;;;;;5015226;28;20169;-77
2023/10/27 03:00:06;;;;;;;125.60;115.27;;;10.70;99.90;;;;;;5032904;28;20158;-77
2023/10/27 03:02:32;;;;;;;120.32;110.22;;;10.70;99.90;;;;;;5033193;28;20182;-77
2023/10/27 03:04:58;;;;;;;111.00;101.68;;;10.80;99.90;;;;;;5032824;28;20205;-77
2023/10/27 03:07:24;;;;;;;120.25;109.72;;;10.80;99.90;;;;;;5032745;28;20216;-77
2023/10/27 03:09:50;;;;;;;128.43;118.30;;;10.70;99.90;;;;;;5032665;28;20162;-77
2023/10/27 03:12:16;;;;;;;125.23;115.10;;;10.70;99.90;;;;;;5033070;28;20201;-77
2023/10/27 03:14:42;;;;;;;128.82;118.18;;;10.70;99.90;;;;;;5032879;28;20720;-77
2023/10/27 03:17:08;;;;;;;119.53;109.40;;;10.70;99.90;;;;;;5032493;28;20154;-77
2023/10/27 03:19:33;;;;;;;140.73;129.20;;;10.70;99.90;;;;;;5032415;28;20922;-76
2023/10/27 03:22:00;;;;;;;144.77;133.50;;;10.70;99.90;;;;;;5032724;28;20232;-76
2023/10/27 03:24:26;;;;;;;149.15;137.70;;;10.70;99.90;;;;;;5032332;28;20192;-76
2023/10/27 03:26:52;;;;;;;133.73;122.77;;;10.70;99.90;;;;;;5033250;28;20158;-76
2023/10/27 03:29:18;;;;;;;170.57;158.03;;;10.70;99.90;;;;;;5036006;28;20245;-76
2023/10/27 03:31:43;;;;;;;170.40;157.80;;;10.70;99.90;;;;;;5018230;28;20245;-77
2023/10/27 03:34:09;;;;;;;156.13;144.60;;;10.60;99.90;;;;;;5035711;28;20455;-76
2023/10/27 03:36:36;;;;;;;167.13;155.32;;;10.60;99.90;;;;;;5035763;28;20672;-77
2023/10/27 03:39:02;;;;;;;154.83;143.17;;;10.60;99.90;;;;;;5035795;28;20174;-76
2023/10/27 03:41:28;;;;;;;156.27;144.25;;;10.60;99.90;;;;;;5036056;28;20173;-77
2023/10/27 03:43:55;;;;;;;143.30;132.27;;;10.60;99.90;;;;;;5035715;28;20272;-77
2023/10/27 03:46:21;;;;;;;157.98;145.77;;;10.60;99.90;;;;;;5035743;28;20162;-77
2023/10/27 03:48:48;;;;;;;165.23;153.10;;;10.60;99.90;;;;;;5035813;28;20586;-77
2023/10/27 03:51:13;;;;;;;168.18;155.55;;;10.60;99.90;;;;;;5035488;28;20535;-77
2023/10/27 03:53:39;;;;;;;171.00;158.37;;;10.60;99.90;;;;;;5035774;28;20193;-77
2023/10/27 03:56:05;;;;;;;155.10;143.70;;;10.60;99.90;;;;;;5035574;28;20158;-77
2023/10/27 03:58:31;;;;;;;178.18;165.52;;;10.60;99.90;;;;;;5035536;28;20158;-77
2023/10/27 04:00:56;;;;;;;171.00;158.47;;;10.60;99.90;;;;;;5035546;28;20161;-77
2023/10/27 04:03:23;;;;;;;159.00;147.00;;;10.60;99.90;;;;;;5035351;28;20208;-77
2023/10/27 04:05:49;;;;;;;166.05;153.90;;;10.60;99.90;;;;;;5036473;28;20181;-77
2023/10/27 04:08:14;;;;;;;154.30;142.00;;;10.70;99.90;;;;;;5035438;28;20166;-77
2023/10/27 04:10:40;;;;;;;189.10;176.50;;;10.70;99.90;;;;;;5035439;28;20241;-77
2023/10/27 04:13:08;;;;;;;162.43;150.53;;;10.70;99.90;;;;;;5035464;28;20190;-77
2023/10/27 04:15:35;;;;;;;178.52;166.02;;;10.70;99.90;;;;;;5035311;28;20590;-77
2023/10/27 04:18:00;;;;;;;190.20;176.88;;;10.70;99.90;;;;;;5035296;28;20169;-76
2023/10/27 04:20:26;;;;;;;183.70;170.57;;;10.70;99.90;;;;;;5035472;28;20162;-77
2023/10/27 04:22:52;;;;;;;181.27;168.77;;;10.70;99.90;;;;;;5035238;28;20604;-77
2023/10/27 04:25:17;;;;;;;187.47;174.27;;;10.70;99.90;;;;;;5035410;28;20166;-77
2023/10/27 04:27:43;;;;;;;161.40;149.57;;;10.70;99.90;;;;;;5035167;28;20587;-77
2023/10/27 04:30:11;;;;;;;184.63;172.10;;;10.70;99.90;;;;;;5035004;28;20448;-77
2023/10/27 04:32:40;;;;;;;175.48;162.57;;;10.70;99.90;;;;;;5035347;28;20181;-77
2023/10/27 04:35:07;;;;;;;162.02;150.10;;;10.70;99.90;;;;;;5035148;28;20233;-77
2023/10/27 04:37:33;;;;;;;189.85;176.82;;;10.70;99.90;;;;;;5034931;28;20212;-77
2023/10/27 04:40:02;;;;;;;179.93;167.27;;;10.70;99.90;;;;;;5034561;28;20162;-77
2023/10/27 04:42:28;;;;;;;176.30;163.85;;;10.70;99.90;;;;;;5034936;28;20793;-77
2023/10/27 04:44:54;;;;;;;166.03;153.87;;;10.60;99.90;;;;;;5034986;28;20157;-77
2023/10/27 04:47:19;;;;;;;166.90;154.77;;;10.60;99.90;;;;;;5034638;28;20405;-76
2023/10/27 04:49:48;;;;;;;168.53;156.07;;;10.70;99.90;;;;;;5034758;28;20194;-76
2023/10/27 04:52:14;;;;;;;170.95;158.80;;;10.80;99.90;;;;;;5033886;28;20190;-76
2023/10/27 04:54:40;;;;;;;168.07;156.13;;;10.80;99.90;;;;;;5033607;28;20200;-76
2023/10/27 04:57:05;;;;;;;176.37;164.03;;;10.80;99.90;;;;;;5033759;28;20209;-76
2023/10/27 04:59:32;;;;;;;162.00;149.90;;;10.70;99.90;;;;;;5015711;28;20174;-76
2023/10/27 05:01:58;;;;;;;171.32;158.70;;;10.70;99.90;;;;;;5034180;28;20615;-76
2023/10/27 05:04:25;;;;;;;177.13;163.55;;;10.70;99.90;;;;;;5033159;28;20618;-76
2023/10/27 05:06:51;;;;;;;167.93;155.90;;;10.60;99.90;;;;;;5033331;28;20174;-76
2023/10/27 05:09:18;;;;;;;160.10;148.30;;;10.60;99.90;;;;;;5015562;28;20642;-77
2023/10/27 05:11:47;;;;;;;183.18;170.35;;;10.60;99.90;;;;;;5033151;28;20463;-76
2023/10/27 05:14:13;;;;;;;178.02;165.18;;;10.60;99.90;;;;;;5033111;28;20744;-76
2023/10/27 05:16:39;;;;;;;151.43;139.88;;;10.60;99.90;;;;;;5033140;28;20162;-77
2023/10/27 05:19:08;;;;;;;163.05;150.50;;;10.60;99.90;;;;;;5015377;28;20697;-77
2023/10/27 05:21:34;;;;;;;151.10;139.77;;;10.60;99.90;;;;;;5033003;28;20584;-77
2023/10/27 05:24:01;;;;;;;158.87;147.13;;;10.60;99.90;;;;;;5033033;28;20237;-76
2023/10/27 05:26:26;;;;;;;179.15;165.60;;;10.60;99.90;;;;;;5033337;28;20242;-77
2023/10/27 05:28:52;;;;;;;161.03;149.37;;;10.70;99.90;;;;;;5032793;28;20679;-77
2023/10/27 05:31:18;;;;;;;161.80;149.13;;;10.70;99.90;;;;;;5015034;28;20181;-76
2023/10/27 05:33:44;;;;;;;148.00;136.33;;;10.70;99.90;;;;;;5032678;28;20190;-76
2023/10/27 05:36:10;;;;;;;152.75;141.13;;;10.70;99.90;;;;;;5033009;28;20848;-76
2023/10/27 05:38:36;;;;;;;158.70;147.02;;;10.70;99.90;;;;;;5032962;28;20220;-77
2023/10/27 05:41:05;;;;;;;164.13;152.27;;;10.60;99.90;;;;;;5032694;28;20166;-77
2023/10/27 05:43:31;;;;;;;162.02;150.23;;;10.60;99.90;;;;;;5032562;28;20424;-76
2023/10/27 05:45:56;;;;;;;156.80;145.10;;;10.60;99.90;;;;;;5014280;28;20189;-76
2023/10/27 05:48:22;;;;;;;172.20;159.73;;;10.60;99.90;;;;;;5032586;28;20244;-76
2023/10/27 05:50:48;;;;;;;165.53;152.47;;;10.60;99.90;;;;;;5031521;28;20177;-76
2023/10/27 05:53:15;;;;;;;166.93;154.80;;;10.60;99.90;;;;;;4994104;28;1118665;-76
2023/10/27 05:55:41;;;;;;;173.13;160.43;;;10.60;99.90;;;;;;5033275;28;20475;-76
2023/10/27 05:58:07;;;;;;;171.27;159.00;;;10.60;99.90;;;;;;5033241;28;20158;-76
2023/10/27 06:00:32;;;;;;;212.18;198.18;;;10.70;99.90;;;;;;5033256;28;20401;-76
2023/10/27 06:02:58;;;;;;;175.17;162.37;;;10.70;99.90;;;;;;5033056;28;20737;-76
2023/10/27 06:05:24;;;;;;;184.67;171.97;;;10.60;99.90;;;;;;5033392;28;20177;-76
2023/10/27 06:07:50;;;;;;;173.43;160.93;;;10.60;99.90;;;;;;5033139;28;20162;-76
2023/10/27 06:10:17;;;;;;;223.27;208.33;;;10.60;99.90;;;;;;5033099;28;20184;-76
2023/10/27 06:12:42;;;;;;;185.27;171.88;;;10.60;99.90;;;;;;5033044;28;20574;-76
2023/10/27 06:15:08;;;;;;;220.00;205.30;;;10.60;99.90;;;;;;5033007;28;20281;-76
2023/10/27 06:17:34;;;;;;;183.60;170.73;;;10.60;99.90;;;;;;5033012;28;20162;-76
2023/10/27 06:20:02;;;;;;;232.30;216.93;;;10.60;99.90;;;;;;5032949;28;20400;-76
2023/10/27 06:22:29;;;;;;;223.23;208.02;;;10.60;99.90;;;;;;5032924;28;20174;-76
2023/10/27 06:24:54;;;;;;;230.52;215.35;;;10.60;99.90;;;;;;5033007;28;20189;-76
2023/10/27 06:27:20;;;;;;;195.60;182.13;;;10.60;99.90;;;;;;5032946;28;20251;-76
2023/10/27 06:29:46;;;;;;;190.77;177.43;;;10.60;99.90;;;;;;5032983;28;20174;-76
2023/10/27 06:32:14;;;;;;;203.50;189.20;;;10.70;99.90;;;;;;5032835;28;20582;-76
2023/10/27 06:34:40;;;;;;;180.15;167.45;;;10.70;99.90;;;;;;5033315;28;20209;-76
2023/10/27 06:37:07;;;;;;;171.13;158.90;;;10.70;99.90;;;;;;5033382;28;20214;-76
2023/10/27 06:39:33;;;;;;;219.00;204.30;;;10.70;99.90;;;;;;5033113;28;20649;-76
2023/10/27 06:41:58;;;;;;;208.70;194.47;;;10.70;99.90;;;;;;5032848;28;20154;-75
2023/10/27 06:44:24;;;;;;;212.97;198.27;;;10.70;99.90;;;;;;5032947;28;20198;-76
2023/10/27 06:46:53;;;;;;;190.63;177.63;;;10.80;99.90;;;;;;5015128;28;20809;-76
2023/10/27 06:49:19;;;;;;;212.98;198.60;;;10.80;99.90;;;;;;5032728;28;20432;-76
2023/10/27 06:51:47;;;;;;;189.57;175.97;;;10.80;99.90;;;;;;5032716;28;20216;-75
2023/10/27 06:54:13;;;;;;;214.68;200.45;;;10.80;99.90;;;;;;5032913;28;20440;-76
2023/10/27 06:56:39;;;;;;;210.95;196.68;;;10.80;99.90;;;;;;5032663;28;20170;-76
2023/10/27 06:59:04;;;;;;;222.80;208.20;;;10.90;99.90;;;;;;5032681;28;20172;-76
2023/10/27 07:01:30;;;;;;;186.17;172.97;;;10.90;99.90;;;;;;5033313;28;20162;-76
2023/10/27 07:03:56;;;;;;;222.77;208.10;;;10.90;99.90;;;;;;5036449;28;20186;-76
2023/10/27 07:06:22;;;;;;;217.83;202.93;;;11.00;99.90;;;;;;5036523;28;20166;-76
2023/10/27 07:08:47;;;;;;;209.93;196.30;;;11.00;99.90;;;;;;5036731;28;20906;-76
2023/10/27 07:11:13;;;;;;;208.23;194.17;;;10.90;99.90;;;;;;5036734;28;20166;-75
2023/10/27 07:13:42;;;;;;;204.47;190.43;;;10.90;99.90;;;;;;5036229;28;20196;-76
2023/10/27 07:16:08;;;;;;;215.68;201.10;;;11.00;99.90;;;;;;5036382;28;20812;-76
2023/10/27 07:18:33;;;;;;;212.70;198.03;;;11.00;99.90;;;;;;5036221;28;20162;-76
2023/10/27 07:20:59;;;;;;;207.30;193.17;;;11.00;99.90;;;;;;5036122;28;20170;-76
2023/10/27 07:23:25;;;;;;;212.00;197.13;;;11.00;99.90;;;;;;5036085;28;20372;-76
2023/10/27 07:25:50;;;;;;;203.90;189.90;;;11.00;99.90;;;;;;5036160;28;20166;-76
2023/10/27 07:28:16;;;;;;;202.83;188.97;;;11.00;99.90;;;;;;5036053;28;20162;-76
2023/10/27 07:30:42;;;;;;;193.60;179.93;;;11.00;99.90;;;;;;5035991;28;20220;-76
2023/10/27 07:33:10;;;;;;;229.27;214.47;;;10.90;99.90;;;;;;5035791;28;20185;-76
2023/10/27 07:35:35;;;;;;;311.17;293.05;;;11.00;99.90;;;;;;5035808;28;20409;-75
2023/10/27 07:38:01;;;;;;;212.20;197.57;;;11.00;99.90;;;;;;5035922;28;20154;-76
2023/10/27 07:40:27;;;;;;;238.03;222.83;;;11.10;99.90;;;;;;5035760;28;20162;-76
2023/10/27 07:42:59;;;;;;;219.97;205.27;;;11.10;99.90;;;;;;5035708;28;20182;-76
2023/10/27 07:45:28;;;;;;;223.30;209.00;;;11.10;99.90;;;;;;5035655;28;20670;-76
2023/10/27 07:47:54;;;;;;;203.77;189.88;;;11.10;99.90;;;;;;5035954;28;20174;-76
2023/10/27 07:50:19;;;;;;;219.87;205.50;;;11.20;99.90;;;;;;5035640;28;20587;-76
2023/10/27 07:52:46;;;;;;;191.43;178.57;;;11.20;99.90;;;;;;5035489;28;20258;-76
2023/10/27 07:55:15;;;;;;;175.18;162.82;;;11.20;99.90;;;;;;5035485;28;20197;-75
2023/10/27 07:57:41;;;;;;;195.57;182.15;;;11.30;99.90;;;;;;5016534;28;20178;-76
2023/10/27 08:00:09;;;;;;;184.47;171.37;;;11.30;99.90;;;;;;5035757;28;20737;-76
2023/10/27 08:02:36;;;;;;;195.88;182.50;;;11.30;99.90;;;;;;5035362;28;20279;-76
2023/10/27 08:05:01;;;;;;;194.48;181.10;;;11.30;99.90;;;;;;5035566;28;20184;-76
2023/10/27 08:07:28;;;;;;;172.03;159.97;;;11.40;99.90;;;;;;5035518;28;20174;-76
2023/10/27 08:09:54;;;;;;;164.68;153.02;;;11.50;99.90;;;;;;5035349;28;20170;-76
2023/10/27 08:12:20;;;;;;;163.60;151.97;;;11.50;99.90;;;;;;5035499;28;20574;-76
2023/10/27 08:14:46;;;;;;;195.43;182.23;;;11.60;99.90;;;;;;5034291;28;20181;-76
2023/10/27 08:17:12;;;;;;;177.73;165.27;;;11.60;99.90;;;;;;5035174;28;20173;-76
2023/10/27 08:19:39;;;;;;;159.37;147.83;;;11.70;99.90;;;;;;5035701;28;20623;-76
2023/10/27 08:22:05;;;;;;;181.75;169.35;;;11.70;99.90;;;;;;5035160;28;20758;-76
2023/10/27 08:24:34;;;;;;;186.45;173.48;;;11.80;99.90;;;;;;5035226;28;20224;-76
2023/10/27 08:27:02;;;;;;;155.90;144.60;;;11.80;99.90;;;;;;5035584;28;20608;-76
2023/10/27 08:29:27;;;;;;;167.50;155.23;;;11.90;99.90;;;;;;5034907;28;20172;-76
2023/10/27 08:31:53;;;;;;;155.23;143.73;;;12.00;99.90;;;;;;5034842;28;20409;-76
2023/10/27 08:34:21;;;;;;;163.70;152.03;;;11.90;99.90;;;;;;5034707;28;20269;-76
2023/10/27 08:36:47;;;;;;;136.10;125.55;;;12.00;99.90;;;;;;5034820;28;20235;-76
2023/10/27 08:39:12;;;;;;;138.63;128.00;;;11.90;99.90;;;;;;5034654;28;20663;-76
2023/10/27 08:41:40;;;;;;;120.87;111.00;;;11.90;99.90;;;;;;5034671;28;20169;-76
2023/10/27 08:44:07;;;;;;;131.20;120.93;;;12.00;99.90;;;;;;5034595;28;20182;-76
2023/10/27 08:46:34;;;;;;;153.13;141.52;;;12.00;99.90;;;;;;5035130;28;20188;-76
2023/10/27 08:48:59;;;;;;;128.80;118.75;;;12.00;99.90;;;;;;5034640;28;20718;-76
2023/10/27 08:51:26;;;;;;;134.13;123.80;;;12.10;99.90;;;;;;5034608;28;20265;-76
2023/10/27 08:53:52;;;;;;;139.52;128.88;;;12.10;99.90;;;;;;5034453;28;20190;-76
2023/10/27 08:56:17;;;;;;;121.97;112.10;;;12.00;99.90;;;;;;5034416;28;20257;-76
2023/10/27 08:58:55;;;;;;;122.40;112.57;;;12.10;99.90;;;;;;5034652;28;20178;-76
2023/10/27 09:01:20;;;;;;;118.18;108.47;;;12.10;99.90;;;;;;5034887;28;20156;-76
2023/10/27 09:04:09;;;;;;;116.47;106.80;;;12.10;99.90;;;;;;5034148;28;20265;-76
2023/10/27 09:06:35;;;;;;;113.00;103.60;;;12.10;99.90;;;;;;5034481;28;20292;-76
2023/10/27 09:09:02;;;;;;;129.70;119.15;;;12.20;99.90;;;;;;5034436;28;20253;-76
2023/10/27 09:11:28;;;;;;;130.40;119.90;;;12.20;99.90;;;;;;5034064;28;20178;-76
2023/10/27 09:13:54;;;;;;;113.67;103.90;;;12.20;99.90;;;;;;5033951;28;20280;-76
2023/10/27 09:16:26;;;;;;;128.40;118.27;;;12.20;99.90;;;;;;5034033;28;20407;-76
2023/10/27 09:18:55;;;;;;;125.40;115.57;;;12.10;99.90;;;;;;5033963;28;20249;-76
2023/10/27 09:21:36;;;;;;;137.63;127.22;;;12.10;99.90;;;;;;5015925;28;20166;-76
2023/10/27 09:24:02;;;;;;;129.07;118.97;;;12.20;99.90;;;;;;5033458;28;20197;-76
2023/10/27 09:26:45;;;;;;;219.23;205.37;;;12.20;99.90;;;;;;5015910;28;20185;-76
2023/10/27 09:29:20;;;;;;;131.10;120.90;;;12.20;99.90;;;;;;5016076;28;20623;-76
2023/10/27 09:31:46;;;;;;;116.13;106.57;;;12.10;99.90;;;;;;5033667;28;20395;-76
2023/10/27 09:34:20;;;;;;;128.63;118.43;;;12.10;99.90;;;;;;5015726;28;20198;-76
2023/10/27 09:36:57;;;;;;;120.93;111.13;;;12.00;99.90;;;;;;5015842;28;20918;-76
2023/10/27 09:39:26;;;;;;;130.18;120.13;;;11.90;99.90;;;;;;5015828;28;20623;-76
2023/10/27 09:42:11;;;;;;;134.57;123.95;;;12.00;99.90;;;;;;5015750;28;20178;-76
2023/10/27 09:44:41;;;;;;;114.85;105.40;;;12.10;99.90;;;;;;5033542;28;20173;-76
2023/10/27 09:47:16;;;;;;;109.03;99.57;;;12.30;99.90;;;;;;5033741;28;20151;-76
2023/10/27 09:49:43;;;;;;;125.13;115.22;;;12.40;99.90;;;;;;5015691;28;20169;-76
2023/10/27 09:52:12;;;;;;;126.57;116.53;;;12.40;99.90;;;;;;5015465;28;20273;-76
2023/10/27 09:54:41;;;;;;;121.33;111.33;;;12.50;99.90;;;;;;5014963;28;20197;-76
2023/10/27 09:57:14;;;;;;;130.10;119.80;;;12.60;99.90;;;;;;5033293;28;20408;-76
2023/10/27 09:59:49;;;;;;;121.03;111.05;;;12.80;99.90;;;;;;5033321;28;20512;-76
2023/10/27 10:02:18;;;;;;;122.82;112.85;;;12.70;99.90;;;;;;5015816;28;20237;-76
2023/10/27 10:05:08;;;;;;;120.93;111.13;;;12.90;99.90;;;;;;5015069;28;20178;-76
2023/10/27 10:07:52;;;;;;;114.85;105.15;;;13.00;99.90;;;;;;5033145;28;20458;-76
2023/10/27 10:11:55;;;;;;;131.98;121.63;;;13.20;99.90;;;;;;5015366;28;20208;-76
2023/10/27 10:13:58;;;;;;;131.45;121.20;;;13.20;99.90;;;;;;5023724;28;20197;-76
2023/10/27 10:16:33;;;;;;;152.40;141.50;;;13.40;99.90;;;;;;5015363;28;20181;-76
2023/10/27 10:18:59;;;;;;;146.25;135.32;;;13.50;99.90;;;;;;5017487;28;20900;-77
2023/10/27 10:21:47;;;;;;;146.17;135.47;;;13.50;99.90;;;;;;5015218;28;20178;-76
2023/10/27 10:24:13;;;;;;;143.23;132.67;;;13.50;99.90;;;;;;5015088;28;20502;-76
2023/10/27 10:27:05;;;;;;;146.27;135.50;;;13.50;99.90;;;;;;5032919;28;20412;-76
2023/10/27 10:29:40;;;;;;;135.33;124.57;;;13.50;99.90;;;;;;5032893;28;20415;-76
2023/10/27 10:32:39;;;;;;;140.07;129.47;;;13.50;99.90;;;;;;5032364;28;20995;-77
2023/10/27 10:35:22;;;;;;;157.30;145.53;;;13.50;99.90;;;;;;5033099;28;20429;-76
2023/10/27 10:37:53;;;;;;;148.10;137.17;;;13.60;99.90;;;;;;5035795;28;20381;-76
2023/10/27 10:40:26;;;;;;;154.37;142.63;;;13.60;99.90;;;;;;5019719;28;20739;-76
2023/10/27 10:43:21;;;;;;;136.50;125.85;;;13.60;99.90;;;;;;5037099;28;20429;-76
2023/10/27 10:45:53;;;;;;;146.77;135.57;;;13.50;99.90;;;;;;5019260;28;20536;-76
2023/10/27 10:48:21;;;;;;;142.53;131.53;;;13.50;99.90;;;;;;5037071;28;20381;-76
2023/10/27 10:50:48;;;;;;;149.13;138.07;;;13.50;99.90;;;;;;5019619;28;20415;-76
2023/10/27 10:53:19;;;;;;;161.10;148.13;;;13.70;99.90;;;;;;5036505;28;20493;-76
2023/10/27 10:55:46;;;;;;;157.13;146.03;;;13.70;99.90;;;;;;5036637;28;20400;-76
2023/10/27 10:58:29;;;;;;;154.60;143.10;;;13.80;99.90;;;;;;5036892;28;20483;-76
2023/10/27 11:00:57;;;;;;;171.00;158.90;;;14.00;99.90;;;;;;5036654;28;20384;-76
2023/10/27 11:03:27;;;;;;;155.20;144.23;;;14.20;99.90;;;;;;5036428;28;20420;-76
2023/10/27 11:06:06;;;;;;;153.10;141.00;;;14.40;99.90;;;;;;5037560;28;20416;-76
2023/10/27 11:08:37;;;;;;;132.07;121.87;;;14.50;99.90;;;;;;5036852;28;20389;-76
2023/10/27 11:11:09;;;;;;;130.97;120.77;;;14.60;99.90;;;;;;5036709;28;20431;-76
2023/10/27 11:13:57;;;;;;;109.97;100.47;;;14.60;99.90;;;;;;5018588;28;20448;-76
2023/10/27 11:16:27;;;;;;;108.10;98.90;;;14.50;99.90;;;;;;5036377;28;20902;-76
2023/10/27 11:18:57;;;;;;;114.83;104.77;;;14.40;99.90;;;;;;5036195;28;20534;-76
2023/10/27 11:21:34;;;;;;;112.03;102.50;;;14.20;99.90;;;;;;5036491;28;20439;-76
2023/10/27 11:24:07;;;;;;;105.97;96.97;;;14.10;99.90;;;;;;5036668;28;20455;-76
2023/10/27 11:26:40;;;;;;;100.30;91.17;;;14.10;99.90;;;;;;5036161;28;20391;-76
2023/10/27 11:29:09;;;;;;;117.60;107.47;;;14.00;99.90;;;;;;5036332;28;20393;-76
2023/10/27 11:31:41;;;;;;;102.70;93.77;;;14.10;99.90;;;;;;5036067;28;20436;-76
2023/10/27 11:34:08;;;;;;;108.27;98.77;;;14.00;99.90;;;;;;5019615;28;20889;-76
2023/10/27 11:36:42;;;;;;;107.17;98.07;;;14.00;99.90;;;;;;5035895;28;20439;-76
2023/10/27 11:39:18;;;;;;;115.53;105.97;;;13.90;99.90;;;;;;5035827;28;20385;-76
2023/10/27 11:41:49;;;;;;;97.57;88.40;;;13.80;99.90;;;;;;5035826;28;20458;-76
2023/10/27 11:44:16;;;;;;;115.37;105.40;;;13.70;99.90;;;;;;5035872;28;20938;-76
2023/10/27 11:46:56;;;;;;;111.63;102.47;;;13.60;99.90;;;;;;5017972;28;20409;-76
2023/10/27 11:49:24;;;;;;;119.63;110.03;;;13.70;99.90;;;;;;5034602;28;20389;-76
2023/10/27 11:51:52;;;;;;;131.57;121.57;;;13.70;99.90;;;;;;5035679;28;20444;-76
2023/10/27 11:54:18;;;;;;;128.73;118.50;;;13.90;99.90;;;;;;5035416;28;20444;-76
2023/10/27 11:56:45;;;;;;;131.43;121.13;;;13.90;99.90;;;;;;5035555;28;20419;-76
2023/10/27 11:59:11;;;;;;;126.43;116.03;;;14.00;99.90;;;;;;5035812;28;20424;-76
2023/10/27 12:01:37;;;;;;;141.00;129.70;;;14.10;99.90;;;;;;5018017;28;20466;-76
2023/10/27 12:04:07;;;;;;;138.20;127.43;;;14.10;99.90;;;;;;5035429;28;20424;-76
2023/10/27 12:06:35;;;;;;;125.30;115.40;;;14.20;99.90;;;;;;5035406;28;20432;-76
2023/10/27 12:09:01;;;;;;;126.63;116.33;;;14.10;99.90;;;;;;5035625;28;20400;-76
2023/10/27 12:11:31;;;;;;;126.30;116.27;;;14.00;99.90;;;;;;5035525;28;20901;-77
2023/10/27 12:13:57;;;;;;;126.47;116.33;;;14.00;99.90;;;;;;5035095;28;20440;-76